createdAt,value
2022-11-29T00:00:42.885Z,101562.92
2022-11-29T00:03:24.804Z,101560.42
2022-11-29T00:05:57.483Z,101559.88
2022-11-29T00:08:30.741Z,101562.20
2022-11-29T00:11:08.846Z,101560.71
2022-11-29T00:13:41.582Z,101560.48
2022-11-29T00:16:13.056Z,101566.11
2022-11-29T00:18:45.550Z,101568.34
2022-11-29T00:21:17.992Z,101565.07
2022-11-29T00:23:50.445Z,101565.89
2022-11-29T00:26:23.102Z,101564.30
2022-11-29T00:28:55.684Z,101560.06
2022-11-29T00:31:30.502Z,101559.55
2022-11-29T00:34:04.896Z,101553.39
2022-11-29T00:36:37.742Z,101545.71
2022-11-29T00:39:11.949Z,101543.33
2022-11-29T00:41:45.146Z,101536.50
2022-11-29T00:44:20.414Z,101531.55
2022-11-29T00:46:53.208Z,101531.61
2022-11-29T00:49:25.710Z,101532.45
2022-11-29T00:51:58.189Z,101533.05
2022-11-29T00:54:30.845Z,101532.61
2022-11-29T00:57:03.367Z,101532.42
2022-11-29T00:59:35.797Z,101534.71
2022-11-29T01:02:08.608Z,101535.91
2022-11-29T01:04:41.096Z,101537.11
2022-11-29T01:07:13.700Z,101538.73
2022-11-29T01:09:46.494Z,101540.74
2022-11-29T01:12:19.034Z,101543.98
2022-11-29T01:14:51.592Z,101544.73
2022-11-29T01:17:24.085Z,101536.81
2022-11-29T01:19:56.737Z,101522.73
2022-11-29T01:22:29.275Z,101522.50
2022-11-29T01:25:01.808Z,101519.03
2022-11-29T01:27:34.434Z,101521.51
2022-11-29T01:30:08.459Z,101519.00
2022-11-29T01:32:41.555Z,101518.77
2022-11-29T01:35:12.369Z,101511.95
2022-11-29T01:37:44.990Z,101521.86
2022-11-29T01:40:18.314Z,101522.29
2022-11-29T01:42:50.966Z,101521.05
2022-11-29T01:45:24.165Z,101527.29
2022-11-29T01:47:59.750Z,101527.14
2022-11-29T01:50:32.266Z,101529.27
2022-11-29T01:53:04.914Z,101524.76
2022-11-29T01:55:40.172Z,101520.23
2022-11-29T01:58:13.058Z,101522.34
2022-11-29T02:00:45.649Z,101520.55
2022-11-29T02:03:19.806Z,101522.41
2022-11-29T02:05:54.142Z,101522.53
2022-11-29T02:08:30.870Z,101527.13
2022-11-29T02:11:15.176Z,101525.16
2022-11-29T02:13:58.734Z,101523.36
2022-11-29T02:16:35.684Z,101522.71
2022-11-29T02:19:18.069Z,101521.09
2022-11-29T02:21:53.058Z,101518.84
2022-11-29T02:24:57.987Z,101521.13
2022-11-29T02:27:56.638Z,101521.29
2022-11-29T02:30:41.379Z,101521.52
2022-11-29T02:33:41.827Z,101525.02
2022-11-29T02:36:44.470Z,101530.34
2022-11-29T02:39:42.762Z,101536.52
2022-11-29T02:42:55.599Z,101532.38
2022-11-29T02:45:51.992Z,101528.13
2022-11-29T02:48:38.323Z,101530.10
2022-11-29T02:51:15.249Z,101539.09
2022-11-29T02:53:52.965Z,101545.65
2022-11-29T02:56:28.865Z,101544.45
2022-11-29T02:59:06.456Z,101542.10
2022-11-29T03:01:46.413Z,101542.86
2022-11-29T03:04:23.393Z,101536.20
2022-11-29T03:07:00.382Z,101535.77
2022-11-29T03:09:38.747Z,101540.34
2022-11-29T03:12:20.237Z,101538.28
2022-11-29T03:15:03.367Z,101541.64
2022-11-29T03:17:44.704Z,101538.41
2022-11-29T03:20:35.404Z,101533.67
2022-11-29T03:23:18.722Z,101543.06
2022-11-29T03:25:56.575Z,101537.48
2022-11-29T03:28:32.700Z,101533.42
2022-11-29T03:31:11.313Z,101536.75
2022-11-29T03:33:49.897Z,101532.27
2022-11-29T03:36:30.660Z,101529.08
2022-11-29T03:39:07.074Z,101530.65
2022-11-29T03:41:44.857Z,101536.46
2022-11-29T03:44:20.104Z,101533.10
2022-11-29T03:46:56.372Z,101535.00
2022-11-29T03:49:33.690Z,101530.11
2022-11-29T03:52:11.710Z,101531.78
2022-11-29T03:54:51.245Z,101533.89
2022-11-29T03:57:27.178Z,101533.86
2022-11-29T04:00:06.405Z,101534.05
2022-11-29T04:03:03.878Z,101530.82
2022-11-29T04:05:58.152Z,101534.06
2022-11-29T04:08:57.102Z,101531.21
2022-11-29T04:11:55.938Z,101528.00
2022-11-29T04:14:55.628Z,101525.75
2022-11-29T04:17:59.303Z,101525.50
2022-11-29T04:20:55.517Z,101530.96
2022-11-29T04:23:51.241Z,101531.67
2022-11-29T04:26:59.657Z,101531.71
2022-11-29T04:29:45.673Z,101534.10
2022-11-29T04:32:30.175Z,101540.52
2022-11-29T04:35:38.341Z,101540.19
2022-11-29T04:38:33.382Z,101540.67
2022-11-29T04:41:19.889Z,101542.83
2022-11-29T04:43:59.662Z,101546.27
2022-11-29T04:46:51.233Z,101547.38
2022-11-29T04:49:37.146Z,101548.52
2022-11-29T04:52:25.048Z,101545.87
2022-11-29T04:55:04.036Z,101545.20
2022-11-29T04:57:50.498Z,101543.45
2022-11-29T05:00:24.479Z,101539.23
2022-11-29T05:02:59.137Z,101538.91
2022-11-29T05:05:36.716Z,101538.14
2022-11-29T05:08:25.324Z,101540.16
2022-11-29T05:11:03.886Z,101546.23
2022-11-29T05:13:43.787Z,101548.27
2022-11-29T05:16:29.649Z,101549.73
2022-11-29T05:19:25.921Z,101544.99
2022-11-29T05:22:06.943Z,101541.67
2022-11-29T05:24:53.289Z,101543.86
2022-11-29T05:27:35.975Z,101545.48
2022-11-29T05:30:11.053Z,101546.38
2022-11-29T05:32:50.402Z,101544.40
2022-11-29T05:35:41.010Z,101544.33
2022-11-29T05:38:29.543Z,101544.17
2022-11-29T05:41:13.939Z,101542.33
2022-11-29T05:43:55.814Z,101540.48
2022-11-29T05:49:31.244Z,101544.94
2022-11-29T05:52:16.406Z,101542.28
2022-11-29T05:54:57.320Z,101546.64
2022-11-29T05:57:36.121Z,101552.42
2022-11-29T06:00:11.205Z,101555.57
2022-11-29T06:02:50.265Z,101553.68
2022-11-29T06:05:30.285Z,101556.10
2022-11-29T06:08:07.230Z,101554.98
2022-11-29T06:10:43.326Z,101558.39
2022-11-29T06:13:22.157Z,101560.38
2022-11-29T06:16:20.370Z,101564.23
2022-11-29T06:19:16.567Z,101565.77
2022-11-29T06:21:55.330Z,101574.12
2022-11-29T06:24:41.788Z,101576.83
2022-11-29T06:27:37.525Z,101579.42
2022-11-29T06:30:14.781Z,101580.02
2022-11-29T06:32:54.591Z,101580.99
2022-11-29T06:35:36.683Z,101584.81
2022-11-29T06:38:14.242Z,101586.27
2022-11-29T06:40:47.632Z,101581.70
2022-11-29T06:43:21.648Z,101578.38
2022-11-29T06:45:58.732Z,101582.45
2022-11-29T06:48:34.929Z,101582.63
2022-11-29T06:51:12.504Z,101584.81
2022-11-29T06:53:53.449Z,101582.92
2022-11-29T06:56:31.174Z,101584.46
2022-11-29T06:59:13.928Z,101581.13
2022-11-29T07:01:49.621Z,101581.80
2022-11-29T07:04:50.081Z,101579.88
2022-11-29T07:07:36.320Z,101580.98
2022-11-29T07:10:15.195Z,101580.88
2022-11-29T07:12:50.033Z,101582.16
2022-11-29T07:15:24.760Z,101585.72
2022-11-29T07:18:13.935Z,101586.03
2022-11-29T07:20:55.713Z,101592.88
2022-11-29T07:23:36.681Z,101594.17
2022-11-29T07:26:21.827Z,101592.14
2022-11-29T07:29:08.497Z,101589.35
2022-11-29T07:31:53.385Z,101591.23
2022-11-29T07:34:32.269Z,101593.86
2022-11-29T07:37:29.073Z,101589.92
2022-11-29T07:40:22.296Z,101592.61
2022-11-29T07:43:02.427Z,101586.27
2022-11-29T07:45:54.336Z,101588.02
2022-11-29T07:48:27.314Z,101584.02
2022-11-29T07:51:06.418Z,101585.36
2022-11-29T07:53:41.778Z,101584.61
2022-11-29T07:56:16.409Z,101578.33
2022-11-29T07:58:49.252Z,101579.17
2022-11-29T08:01:21.917Z,101575.52
2022-11-29T08:03:54.572Z,101575.05
2022-11-29T08:06:29.275Z,101579.39
2022-11-29T08:09:01.845Z,101579.31
2022-11-29T08:11:34.692Z,101576.34
2022-11-29T08:14:07.279Z,101580.83
2022-11-29T08:16:39.916Z,101574.23
2022-11-29T08:19:12.619Z,101572.35
2022-11-29T08:21:48.550Z,101577.34
2022-11-29T08:24:21.187Z,101576.83
2022-11-29T08:26:53.783Z,101577.84
2022-11-29T08:29:26.386Z,101579.83
2022-11-29T08:31:58.914Z,101584.37
2022-11-29T08:34:31.741Z,101584.25
2022-11-29T08:37:02.550Z,101580.83
2022-11-29T08:39:35.021Z,101574.79
2022-11-29T08:42:07.817Z,101573.08
2022-11-29T08:44:40.381Z,101571.46
2022-11-29T08:47:30.922Z,101570.17
2022-11-29T08:50:03.744Z,101567.13
2022-11-29T08:52:55.397Z,101565.61
2022-11-29T08:55:32.693Z,101563.36
2022-11-29T08:58:07.325Z,101560.90
2022-11-29T09:00:40.730Z,101556.61
2022-11-29T09:03:32.584Z,101554.05
2022-11-29T09:06:12.529Z,101546.44
2022-11-29T09:08:45.745Z,101548.45
2022-11-29T09:11:21.103Z,101543.14
2022-11-29T09:13:55.279Z,101543.99
2022-11-29T09:16:30.346Z,101540.05
2022-11-29T09:19:04.946Z,101536.70
2022-11-29T09:21:38.377Z,101537.29
2022-11-29T09:24:11.425Z,101539.95
2022-11-29T09:26:48.438Z,101540.41
2022-11-29T09:29:21.086Z,101542.23
2022-11-29T09:31:54.138Z,101535.84
2022-11-29T09:34:26.862Z,101530.94
2022-11-29T09:36:59.490Z,101526.73
2022-11-29T09:39:31.990Z,101526.48
2022-11-29T09:42:18.949Z,101522.63
2022-11-29T09:45:02.131Z,101519.05
2022-11-29T09:47:43.105Z,101517.98
2022-11-29T09:50:29.344Z,101506.29
2022-11-29T09:53:15.460Z,101501.77
2022-11-29T09:55:56.022Z,101502.91
2022-11-29T09:58:32.499Z,101502.27
2022-11-29T10:01:10.076Z,101494.40
2022-11-29T10:03:44.617Z,101494.75
2022-11-29T10:06:22.893Z,101487.25
2022-11-29T10:08:59.835Z,101481.27
2022-11-29T10:11:37.164Z,101480.74
2022-11-29T10:14:14.787Z,101485.58
2022-11-29T10:16:50.946Z,101487.40
2022-11-29T10:19:29.371Z,101490.38
2022-11-29T10:22:04.076Z,101484.51
2022-11-29T10:24:37.605Z,101487.14
2022-11-29T10:27:15.801Z,101485.90
2022-11-29T10:29:51.359Z,101489.81
2022-11-29T10:32:25.494Z,101492.02
2022-11-29T10:35:00.776Z,101495.68
2022-11-29T10:37:34.921Z,101490.87
2022-11-29T10:40:11.313Z,101491.60
2022-11-29T10:42:52.923Z,101493.64
2022-11-29T10:45:30.089Z,101495.86
2022-11-29T10:48:07.806Z,101494.40
2022-11-29T10:50:42.805Z,101497.53
2022-11-29T10:53:17.956Z,101496.25
2022-11-29T10:55:54.693Z,101496.39
2022-11-29T10:58:29.243Z,101490.39
2022-11-29T11:01:06.967Z,101486.09
2022-11-29T11:03:41.156Z,101484.85
2022-11-29T11:06:18.898Z,101484.35
2022-11-29T11:08:54.085Z,101483.98
2022-11-29T11:11:32.963Z,101480.39
2022-11-29T11:14:08.110Z,101478.94
2022-11-29T11:16:41.748Z,101477.73
2022-11-29T11:19:34.589Z,101481.17
2022-11-29T11:22:07.539Z,101484.69
2022-11-29T11:24:43.720Z,101484.32
2022-11-29T11:27:16.988Z,101480.45
2022-11-29T11:29:52.634Z,101477.42
2022-11-29T11:32:25.226Z,101475.79
2022-11-29T11:34:59.019Z,101473.23
2022-11-29T11:37:33.630Z,101466.84
2022-11-29T11:40:27.343Z,101466.65
2022-11-29T11:43:01.090Z,101468.70
2022-11-29T11:45:38.964Z,101467.05
2022-11-29T11:48:17.156Z,101460.61
2022-11-29T11:50:54.408Z,101461.77
2022-11-29T11:53:28.766Z,101466.17
2022-11-29T11:56:03.249Z,101462.62
2022-11-29T11:58:38.073Z,101466.56
2022-11-29T12:01:25.503Z,101471.52
2022-11-29T12:04:04.118Z,101467.58
2022-11-29T12:06:50.424Z,101469.34
2022-11-29T12:09:37.657Z,101464.67
2022-11-29T12:12:15.450Z,101463.00
2022-11-29T12:14:55.297Z,101456.42
2022-11-29T12:17:34.950Z,101455.98
2022-11-29T12:20:18.877Z,101453.89
2022-11-29T12:23:04.617Z,101450.58
2022-11-29T12:25:43.975Z,101453.67
2022-11-29T12:28:20.845Z,101452.06
2022-11-29T12:30:57.518Z,101455.63
2022-11-29T12:33:37.453Z,101453.32
2022-11-29T12:36:19.577Z,101448.39
2022-11-29T12:39:07.267Z,101446.48
2022-11-29T12:41:52.422Z,101447.66
2022-11-29T12:44:41.729Z,101442.48
2022-11-29T12:47:39.427Z,101443.06
2022-11-29T12:50:22.249Z,101439.52
2022-11-29T12:53:01.928Z,101438.73
2022-11-29T12:55:40.735Z,101438.42
2022-11-29T12:58:19.427Z,101442.00
2022-11-29T13:01:02.116Z,101443.85
2022-11-29T13:03:40.479Z,101441.23
2022-11-29T13:06:21.327Z,101436.17
2022-11-29T13:09:07.716Z,101438.42
2022-11-29T13:11:42.677Z,101450.06
2022-11-29T13:14:42.268Z,101443.67
2022-11-29T13:17:32.359Z,101448.52
2022-11-29T13:20:15.158Z,101452.23
2022-11-29T13:22:54.502Z,101452.31
2022-11-29T13:25:31.959Z,101453.12
2022-11-29T13:28:07.071Z,101454.22
2022-11-29T13:30:40.966Z,101447.54
2022-11-29T13:33:19.291Z,101446.87
2022-11-29T13:35:55.197Z,101450.25
2022-11-29T13:38:31.001Z,101455.14
2022-11-29T13:41:10.020Z,101455.30
2022-11-29T13:43:46.332Z,101456.83
2022-11-29T13:46:24.496Z,101457.56
2022-11-29T13:48:57.342Z,101459.14
2022-11-29T13:51:32.797Z,101460.98
2022-11-29T13:54:29.663Z,101465.95
2022-11-29T13:57:06.062Z,101466.11
2022-11-29T13:59:45.919Z,101465.83
2022-11-29T14:02:30.908Z,101471.86
2022-11-29T14:05:03.761Z,101471.70
2022-11-29T14:07:36.539Z,101477.55
2022-11-29T14:10:07.795Z,101481.17
2022-11-29T14:12:44.985Z,101482.52
2022-11-29T14:15:27.803Z,101481.95
2022-11-29T14:18:02.517Z,101484.02
2022-11-29T14:20:58.001Z,101478.54
2022-11-29T14:23:41.490Z,101478.91
2022-11-29T14:26:39.467Z,101479.21
2022-11-29T14:29:53.730Z,101481.65
2022-11-29T14:32:28.394Z,101484.70
2022-11-29T14:35:05.369Z,101486.23
2022-11-29T14:37:51.742Z,101488.10
2022-11-29T14:40:30.627Z,101492.39
2022-11-29T14:43:06.119Z,101493.59
2022-11-29T14:45:38.788Z,101496.08
2022-11-29T14:48:26.864Z,101499.32
2022-11-29T14:51:12.660Z,101499.34
2022-11-29T14:53:47.791Z,101502.58
2022-11-29T14:56:39.889Z,101497.40
2022-11-29T14:59:43.844Z,101502.41
2022-11-29T15:02:32.540Z,101499.95
2022-11-29T15:05:18.701Z,101497.60
2022-11-29T15:07:56.237Z,101502.22
2022-11-29T15:10:32.831Z,101508.48
2022-11-29T15:13:06.970Z,101510.23
2022-11-29T15:15:51.738Z,101509.39
2022-11-29T15:18:34.249Z,101511.41
2022-11-29T15:21:15.002Z,101510.42
2022-11-29T15:23:47.579Z,101510.02
2022-11-29T15:26:21.913Z,101517.42
2022-11-29T15:28:56.490Z,101513.54
2022-11-29T15:31:29.265Z,101513.94
2022-11-29T15:34:18.506Z,101517.71
2022-11-29T15:36:51.133Z,101522.13
2022-11-29T15:39:31.883Z,101526.38
2022-11-29T15:42:13.788Z,101524.21
2022-11-29T15:44:49.681Z,101522.68
2022-11-29T15:47:26.500Z,101525.13
2022-11-29T15:49:59.115Z,101528.19
2022-11-29T15:52:34.892Z,101532.19
2022-11-29T15:55:12.007Z,101531.36
2022-11-29T15:57:46.767Z,101533.02
2022-11-29T16:00:24.345Z,101537.52
2022-11-29T16:02:59.953Z,101530.73
2022-11-29T16:05:35.776Z,101534.42
2022-11-29T16:08:14.310Z,101535.17
2022-11-29T16:10:50.501Z,101538.34
2022-11-29T16:13:43.313Z,101543.48
2022-11-29T16:16:21.071Z,101546.73
2022-11-29T16:18:53.915Z,101550.40
2022-11-29T16:21:29.142Z,101552.70
2022-11-29T16:24:12.300Z,101549.85
2022-11-29T16:26:47.077Z,101549.66
2022-11-29T16:29:26.767Z,101549.75
2022-11-29T16:31:59.594Z,101550.23
2022-11-29T16:34:34.353Z,101548.66
2022-11-29T16:37:09.226Z,101548.67
2022-11-29T16:39:45.859Z,101556.63
2022-11-29T16:46:41.083Z,101567.61
2022-11-29T16:49:35.327Z,101568.50
2022-11-29T16:52:27.074Z,101575.25
2022-11-29T16:55:00.800Z,101575.20
2022-11-29T16:57:34.489Z,101572.56
2022-11-29T17:00:13.399Z,101574.89
2022-11-29T17:02:45.885Z,101575.29
2022-11-29T17:05:18.663Z,101574.89
2022-11-29T17:07:51.339Z,101575.66
2022-11-29T17:10:25.066Z,101579.80
2022-11-29T17:12:57.655Z,101589.31
2022-11-29T17:15:30.136Z,101590.65
2022-11-29T17:18:03.241Z,101594.75
2022-11-29T17:20:35.839Z,101596.53
2022-11-29T17:23:08.525Z,101600.30
2022-11-29T17:25:41.046Z,101600.45
2022-11-29T17:28:14.555Z,101607.67
2022-11-29T17:30:47.848Z,101599.88
2022-11-29T17:33:21.759Z,101602.77
2022-11-29T17:35:54.803Z,101606.85
2022-11-29T17:38:27.737Z,101605.66
2022-11-29T17:41:00.279Z,101603.40
2022-11-29T17:43:33.143Z,101598.19
2022-11-29T17:46:08.993Z,101596.99
2022-11-29T17:48:42.951Z,101598.63
2022-11-29T17:51:43.578Z,101600.96
2022-11-29T17:54:10.557Z,101609.48
2022-11-29T17:56:43.118Z,101605.89
2022-11-29T17:59:15.688Z,101605.89
2022-11-29T18:01:48.247Z,101606.25
2022-11-29T18:04:21.531Z,101606.28
2022-11-29T18:06:53.963Z,101604.36
2022-11-29T18:09:28.121Z,101598.06
2022-11-29T18:12:01.398Z,101600.80
2022-11-29T18:14:39.181Z,101597.64
2022-11-29T18:17:15.249Z,101600.63
2022-11-29T18:19:52.259Z,101604.83
2022-11-29T18:22:25.446Z,101610.58
2022-11-29T18:25:16.160Z,101606.30
2022-11-29T18:27:53.645Z,101603.88
2022-11-29T18:30:52.169Z,101603.65
2022-11-29T18:33:29.747Z,101606.63
2022-11-29T18:36:08.855Z,101608.44
2022-11-29T18:38:42.311Z,101612.17
2022-11-29T18:41:19.834Z,101613.51
2022-11-29T18:43:59.248Z,101608.05
2022-11-29T18:46:33.159Z,101609.45
2022-11-29T18:49:06.966Z,101611.65
2022-11-29T18:51:42.574Z,101607.80
2022-11-29T18:54:15.496Z,101613.89
2022-11-29T18:56:53.700Z,101618.52
2022-11-29T18:59:26.542Z,101620.31
2022-11-29T19:01:57.594Z,101626.62
2022-11-29T19:04:30.169Z,101623.73
2022-11-29T19:07:02.603Z,101624.55
2022-11-29T19:09:35.137Z,101623.23
2022-11-29T19:12:10.208Z,101625.98
2022-11-29T19:14:49.665Z,101625.30
2022-11-29T19:17:25.879Z,101624.70
2022-11-29T19:19:59.648Z,101628.16
2022-11-29T19:22:33.569Z,101630.10
2022-11-29T19:25:08.165Z,101625.98
2022-11-29T19:27:49.114Z,101632.11
2022-11-29T19:30:29.341Z,101633.52
2022-11-29T19:33:04.561Z,101637.02
2022-11-29T19:35:39.126Z,101638.47
2022-11-29T19:38:17.322Z,101634.81
2022-11-29T19:40:54.472Z,101641.67
2022-11-29T19:43:51.199Z,101639.33
2022-11-29T19:46:26.917Z,101645.56
2022-11-29T19:49:02.612Z,101643.98
2022-11-29T19:51:35.865Z,101643.66
2022-11-29T19:54:28.480Z,101641.49
2022-11-29T19:57:04.345Z,101639.99
2022-11-29T19:59:42.384Z,101643.48
2022-11-29T20:02:15.746Z,101640.11
2022-11-29T20:04:49.872Z,101640.27
2022-11-29T20:07:22.720Z,101634.32
2022-11-29T20:09:59.852Z,101637.78
2022-11-29T20:12:43.478Z,101633.36
2022-11-29T20:15:18.818Z,101634.49
2022-11-29T20:18:00.216Z,101634.45
2022-11-29T20:20:36.114Z,101636.86
2022-11-29T20:23:14.133Z,101634.29
2022-11-29T20:25:54.122Z,101638.73
2022-11-29T20:28:26.915Z,101641.66
2022-11-29T20:30:58.002Z,101643.68
2022-11-29T20:33:31.044Z,101645.17
2022-11-29T20:36:13.156Z,101642.49
2022-11-29T20:38:54.087Z,101645.41
2022-11-29T20:41:35.922Z,101640.02
2022-11-29T20:44:09.412Z,101645.10
2022-11-29T20:46:42.609Z,101647.73
2022-11-29T20:49:20.362Z,101645.77
2022-11-29T20:51:57.250Z,101654.23
2022-11-29T20:54:35.540Z,101648.98
2022-11-29T20:57:09.338Z,101649.03
2022-11-29T20:59:41.911Z,101644.95
2022-11-29T21:02:16.479Z,101655.64
2022-11-29T21:04:49.164Z,101656.81
2022-11-29T21:07:20.287Z,101660.77
2022-11-29T21:09:56.687Z,101664.19
2022-11-29T21:12:35.710Z,101668.14
2022-11-29T21:15:10.409Z,101672.30
2022-11-29T21:17:43.898Z,101675.05
2022-11-29T21:20:22.704Z,101675.77
2022-11-29T21:23:04.919Z,101674.39
2022-11-29T21:25:46.463Z,101671.94
2022-11-29T21:28:20.263Z,101670.06
2022-11-29T21:30:53.855Z,101671.38
2022-11-29T21:33:27.483Z,101670.66
2022-11-29T21:36:01.755Z,101668.67
2022-11-29T21:38:34.648Z,101664.40
2022-11-29T21:41:07.397Z,101666.93
2022-11-29T21:44:09.096Z,101665.27
2022-11-29T21:46:33.179Z,101665.04
2022-11-29T21:49:05.977Z,101662.16
2022-11-29T21:51:38.585Z,101662.40
2022-11-29T21:54:11.288Z,101663.73
2022-11-29T21:56:43.994Z,101656.21
2022-11-29T21:59:16.585Z,101659.42
2022-11-29T22:01:49.396Z,101658.63
2022-11-29T22:04:22.424Z,101658.20
2022-11-29T22:06:53.439Z,101650.96
2022-11-29T22:09:26.636Z,101655.66
2022-11-29T22:11:59.504Z,101651.88
2022-11-29T22:14:30.309Z,101644.19
2022-11-29T22:17:03.897Z,101648.20
2022-11-29T22:19:39.619Z,101649.10
2022-11-29T22:22:12.322Z,101644.11
2022-11-29T22:24:45.232Z,101640.05
2022-11-29T22:27:18.913Z,101640.38
2022-11-29T22:29:51.546Z,101641.33
2022-11-29T22:32:24.060Z,101643.56
2022-11-29T22:34:56.782Z,101637.77
2022-11-29T22:37:29.478Z,101632.77
2022-11-29T22:40:04.059Z,101640.05
2022-11-29T22:42:36.772Z,101642.21
2022-11-29T22:45:10.647Z,101639.73
2022-11-29T22:47:43.417Z,101640.99
2022-11-29T22:50:17.541Z,101637.38
2022-11-29T22:52:49.565Z,101630.95
2022-11-29T22:55:22.334Z,101632.84
2022-11-29T22:57:56.010Z,101639.05
2022-11-29T23:00:31.026Z,101640.01
2022-11-29T23:03:03.753Z,101641.08
2022-11-29T23:05:35.667Z,101643.29
2022-11-29T23:08:08.639Z,101643.20
2022-11-29T23:10:41.385Z,101643.19
2022-11-29T23:13:13.990Z,101637.98
2022-11-29T23:15:46.578Z,101639.97
2022-11-29T23:18:19.188Z,101634.84
2022-11-29T23:20:51.710Z,101641.80
2022-11-29T23:23:24.212Z,101641.13
2022-11-29T23:25:56.943Z,101640.06
2022-11-29T23:28:30.069Z,101638.77
2022-11-29T23:31:03.116Z,101639.31
2022-11-29T23:33:35.737Z,101636.40
2022-11-29T23:36:10.466Z,101634.86
2022-11-29T23:38:43.614Z,101631.44
2022-11-29T23:41:16.875Z,101633.62
2022-11-29T23:43:50.661Z,101633.67
2022-11-29T23:46:25.058Z,101633.11
2022-11-29T23:48:57.807Z,101638.63
2022-11-29T23:51:30.419Z,101643.85
2022-11-29T23:54:03.023Z,101643.36
2022-11-29T23:56:35.736Z,101642.08
2022-11-29T23:59:08.371Z,101640.98
